sensor_id;sensor_type;location;lat;lon;timestamp;temperature;humidity
39237;DHT22;36851;49.996;8.268;2022-08-21T00:01:52;28.00;79.60
39237;DHT22;36851;49.996;8.268;2022-08-21T00:04:19;27.90;79.60
39237;DHT22;36851;49.996;8.268;2022-08-21T00:06:51;27.90;79.60
39237;DHT22;36851;49.996;8.268;2022-08-21T00:09:19;27.90;79.60
39237;DHT22;36851;49.996;8.268;2022-08-21T00:11:46;27.90;79.60
39237;DHT22;36851;49.996;8.268;2022-08-21T00:14:14;27.90;80.20
39237;DHT22;36851;49.996;8.268;2022-08-21T00:16:42;27.90;79.60
39237;DHT22;36851;49.996;8.268;2022-08-21T00:19:09;27.90;79.60
39237;DHT22;36851;49.996;8.268;2022-08-21T00:21:36;27.90;79.60
39237;DHT22;36851;49.996;8.268;2022-08-21T00:24:04;27.90;79.60
39237;DHT22;36851;49.996;8.268;2022-08-21T00:26:31;27.90;79.60
39237;DHT22;36851;49.996;8.268;2022-08-21T00:28:58;27.90;79.70
39237;DHT22;36851;49.996;8.268;2022-08-21T00:31:27;27.90;79.70
39237;DHT22;36851;49.996;8.268;2022-08-21T00:33:54;27.90;79.70
39237;DHT22;36851;49.996;8.268;2022-08-21T00:36:27;27.90;79.70
39237;DHT22;36851;49.996;8.268;2022-08-21T00:38:54;27.90;79.70
39237;DHT22;36851;49.996;8.268;2022-08-21T00:41:21;27.90;79.70
39237;DHT22;36851;49.996;8.268;2022-08-21T00:44:04;27.90;79.70
39237;DHT22;36851;49.996;8.268;2022-08-21T00:46:32;27.90;79.70
39237;DHT22;36851;49.996;8.268;2022-08-21T00:48:59;27.90;79.70
39237;DHT22;36851;49.996;8.268;2022-08-21T00:51:32;27.90;79.70
39237;DHT22;36851;49.996;8.268;2022-08-21T00:54:04;27.90;79.70
39237;DHT22;36851;49.996;8.268;2022-08-21T00:56:37;27.80;79.60
39237;DHT22;36851;49.996;8.268;2022-08-21T00:59:07;27.90;79.70
39237;DHT22;36851;49.996;8.268;2022-08-21T01:01:35;27.80;79.70
39237;DHT22;36851;49.996;8.268;2022-08-21T01:04:02;27.90;79.70
39237;DHT22;36851;49.996;8.268;2022-08-21T01:06:29;27.80;79.70
39237;DHT22;36851;49.996;8.268;2022-08-21T01:08:57;27.80;79.70
39237;DHT22;36851;49.996;8.268;2022-08-21T01:11:24;27.80;79.70
39237;DHT22;36851;49.996;8.268;2022-08-21T01:13:52;27.80;79.70
39237;DHT22;36851;49.996;8.268;2022-08-21T01:16:20;27.80;79.70
39237;DHT22;36851;49.996;8.268;2022-08-21T01:18:48;27.80;79.70
39237;DHT22;36851;49.996;8.268;2022-08-21T01:21:17;27.80;79.70
39237;DHT22;36851;49.996;8.268;2022-08-21T01:23:46;27.80;79.70
39237;DHT22;36851;49.996;8.268;2022-08-21T01:26:14;27.80;80.30
39237;DHT22;36851;49.996;8.268;2022-08-21T01:28:49;27.80;79.70
39237;DHT22;36851;49.996;8.268;2022-08-21T01:31:19;27.80;79.70
39237;DHT22;36851;49.996;8.268;2022-08-21T01:33:52;27.80;79.80
39237;DHT22;36851;49.996;8.268;2022-08-21T01:36:20;27.80;79.80
39237;DHT22;36851;49.996;8.268;2022-08-21T01:38:47;27.70;79.70
39237;DHT22;36851;49.996;8.268;2022-08-21T01:41:15;27.80;79.80
39237;DHT22;36851;49.996;8.268;2022-08-21T01:43:42;27.70;79.70
39237;DHT22;36851;49.996;8.268;2022-08-21T01:46:10;27.80;79.80
39237;DHT22;36851;49.996;8.268;2022-08-21T01:48:38;27.70;79.70
39237;DHT22;36851;49.996;8.268;2022-08-21T01:51:07;27.70;79.70
39237;DHT22;36851;49.996;8.268;2022-08-21T01:53:34;27.70;79.70
39237;DHT22;36851;49.996;8.268;2022-08-21T01:56:07;27.70;79.70
39237;DHT22;36851;49.996;8.268;2022-08-21T01:58:39;27.70;79.70
39237;DHT22;36851;49.996;8.268;2022-08-21T02:01:07;27.70;79.80
39237;DHT22;36851;49.996;8.268;2022-08-21T02:03:34;27.70;79.80
39237;DHT22;36851;49.996;8.268;2022-08-21T02:06:05;27.70;79.80
39237;DHT22;36851;49.996;8.268;2022-08-21T02:08:33;27.70;79.80
39237;DHT22;36851;49.996;8.268;2022-08-21T02:11:01;27.70;79.80
39237;DHT22;36851;49.996;8.268;2022-08-21T02:13:28;27.70;79.80
39237;DHT22;36851;49.996;8.268;2022-08-21T02:15:55;27.70;79.80
39237;DHT22;36851;49.996;8.268;2022-08-21T02:18:22;27.70;79.80
39237;DHT22;36851;49.996;8.268;2022-08-21T02:20:50;27.70;79.80
39237;DHT22;36851;49.996;8.268;2022-08-21T02:23:22;27.70;79.80
39237;DHT22;36851;49.996;8.268;2022-08-21T02:25:54;27.60;79.80
39237;DHT22;36851;49.996;8.268;2022-08-21T02:28:21;27.60;79.80
39237;DHT22;36851;49.996;8.268;2022-08-21T02:30:49;27.60;79.80
39237;DHT22;36851;49.996;8.268;2022-08-21T02:33:18;27.60;79.80
39237;DHT22;36851;49.996;8.268;2022-08-21T02:35:45;27.60;79.80
39237;DHT22;36851;49.996;8.268;2022-08-21T02:38:15;27.60;79.80
39237;DHT22;36851;49.996;8.268;2022-08-21T02:40:43;27.60;79.80
39237;DHT22;36851;49.996;8.268;2022-08-21T02:43:14;27.60;79.80
39237;DHT22;36851;49.996;8.268;2022-08-21T02:45:43;27.60;80.50
39237;DHT22;36851;49.996;8.268;2022-08-21T02:48:12;27.60;79.90
39237;DHT22;36851;49.996;8.268;2022-08-21T02:50:44;27.60;79.90
39237;DHT22;36851;49.996;8.268;2022-08-21T02:53:12;27.60;79.90
39237;DHT22;36851;49.996;8.268;2022-08-21T02:55:43;27.60;79.90
39237;DHT22;36851;49.996;8.268;2022-08-21T02:58:11;27.60;79.90
39237;DHT22;36851;49.996;8.268;2022-08-21T03:00:41;27.60;79.90
39237;DHT22;36851;49.996;8.268;2022-08-21T03:03:08;27.60;79.90
39237;DHT22;36851;49.996;8.268;2022-08-21T03:05:36;27.50;79.80
39237;DHT22;36851;49.996;8.268;2022-08-21T03:08:06;27.60;79.90
39237;DHT22;36851;49.996;8.268;2022-08-21T03:10:40;27.50;79.80
39237;DHT22;36851;49.996;8.268;2022-08-21T03:13:08;27.50;79.90
39237;DHT22;36851;49.996;8.268;2022-08-21T03:15:35;27.50;79.90
39237;DHT22;36851;49.996;8.268;2022-08-21T03:18:04;27.50;79.80
39237;DHT22;36851;49.996;8.268;2022-08-21T03:20:32;27.50;79.80
39237;DHT22;36851;49.996;8.268;2022-08-21T03:23:00;27.50;79.80
39237;DHT22;36851;49.996;8.268;2022-08-21T03:25:28;27.50;79.90
39237;DHT22;36851;49.996;8.268;2022-08-21T03:28:08;27.50;79.90
39237;DHT22;36851;49.996;8.268;2022-08-21T03:30:44;27.50;79.90
39237;DHT22;36851;49.996;8.268;2022-08-21T03:33:12;27.50;79.90
39237;DHT22;36851;49.996;8.268;2022-08-21T03:35:42;27.50;79.90
39237;DHT22;36851;49.996;8.268;2022-08-21T03:38:10;27.50;79.90
39237;DHT22;36851;49.996;8.268;2022-08-21T03:40:40;27.50;79.90
39237;DHT22;36851;49.996;8.268;2022-08-21T03:43:07;27.50;79.90
39237;DHT22;36851;49.996;8.268;2022-08-21T03:45:37;27.40;79.90
39237;DHT22;36851;49.996;8.268;2022-08-21T03:48:05;27.40;79.90
39237;DHT22;36851;49.996;8.268;2022-08-21T03:50:34;27.40;79.90
39237;DHT22;36851;49.996;8.268;2022-08-21T03:53:07;27.50;80.00
39237;DHT22;36851;49.996;8.268;2022-08-21T03:55:44;27.40;79.90
39237;DHT22;36851;49.996;8.268;2022-08-21T03:58:13;27.50;80.00
39237;DHT22;36851;49.996;8.268;2022-08-21T04:00:43;27.40;80.50
39237;DHT22;36851;49.996;8.268;2022-08-21T04:03:10;27.40;79.90
39237;DHT22;36851;49.996;8.268;2022-08-21T04:05:38;27.40;80.00
39237;DHT22;36851;49.996;8.268;2022-08-21T04:08:05;27.40;80.00
39237;DHT22;36851;49.996;8.268;2022-08-21T04:10:34;27.40;79.90
39237;DHT22;36851;49.996;8.268;2022-08-21T04:13:02;27.40;80.00
39237;DHT22;36851;49.996;8.268;2022-08-21T04:15:29;27.40;80.00
39237;DHT22;36851;49.996;8.268;2022-08-21T04:17:56;27.40;80.00
39237;DHT22;36851;49.996;8.268;2022-08-21T04:20:24;27.40;80.00
39237;DHT22;36851;49.996;8.268;2022-08-21T04:22:51;27.40;80.00
39237;DHT22;36851;49.996;8.268;2022-08-21T04:25:20;27.40;80.00
39237;DHT22;36851;49.996;8.268;2022-08-21T04:27:48;27.40;80.00
39237;DHT22;36851;49.996;8.268;2022-08-21T04:30:15;27.30;80.00
39237;DHT22;36851;49.996;8.268;2022-08-21T04:32:46;27.30;80.00
39237;DHT22;36851;49.996;8.268;2022-08-21T04:35:22;27.30;80.00
39237;DHT22;36851;49.996;8.268;2022-08-21T04:37:50;27.40;80.00
39237;DHT22;36851;49.996;8.268;2022-08-21T04:40:18;27.30;80.00
39237;DHT22;36851;49.996;8.268;2022-08-21T04:42:47;27.30;80.00
39237;DHT22;36851;49.996;8.268;2022-08-21T04:45:17;27.30;80.00
39237;DHT22;36851;49.996;8.268;2022-08-21T04:47:54;27.30;80.00
39237;DHT22;36851;49.996;8.268;2022-08-21T04:50:22;27.30;80.00
39237;DHT22;36851;49.996;8.268;2022-08-21T04:53:03;27.30;80.00
39237;DHT22;36851;49.996;8.268;2022-08-21T04:55:31;27.30;80.00
39237;DHT22;36851;49.996;8.268;2022-08-21T04:57:58;27.30;80.10
39237;DHT22;36851;49.996;8.268;2022-08-21T05:00:26;27.30;80.10
39237;DHT22;36851;49.996;8.268;2022-08-21T05:02:53;27.30;80.10
39237;DHT22;36851;49.996;8.268;2022-08-21T05:05:27;27.30;80.10
39237;DHT22;36851;49.996;8.268;2022-08-21T05:07:56;27.30;80.00
39237;DHT22;36851;49.996;8.268;2022-08-21T05:10:24;27.30;80.10
39237;DHT22;36851;49.996;8.268;2022-08-21T05:12:52;27.30;80.10
39237;DHT22;36851;49.996;8.268;2022-08-21T05:15:20;27.30;80.10
39237;DHT22;36851;49.996;8.268;2022-08-21T05:17:47;27.30;80.10
39237;DHT22;36851;49.996;8.268;2022-08-21T05:20:26;27.20;80.00
39237;DHT22;36851;49.996;8.268;2022-08-21T05:22:53;27.30;80.10
39237;DHT22;36851;49.996;8.268;2022-08-21T05:25:20;27.30;80.10
39237;DHT22;36851;49.996;8.268;2022-08-21T05:27:49;27.30;80.10
39237;DHT22;36851;49.996;8.268;2022-08-21T05:30:19;27.20;80.00
39237;DHT22;36851;49.996;8.268;2022-08-21T05:32:46;27.30;80.10
39237;DHT22;36851;49.996;8.268;2022-08-21T05:35:14;27.30;80.10
39237;DHT22;36851;49.996;8.268;2022-08-21T05:37:41;27.30;80.10
39237;DHT22;36851;49.996;8.268;2022-08-21T05:40:09;27.20;80.00
39237;DHT22;36851;49.996;8.268;2022-08-21T05:42:52;27.30;80.10
39237;DHT22;36851;49.996;8.268;2022-08-21T05:45:22;27.30;80.10
39237;DHT22;36851;49.996;8.268;2022-08-21T05:48:31;27.30;80.10
39237;DHT22;36851;49.996;8.268;2022-08-21T05:50:56;27.30;80.10
39237;DHT22;36851;49.996;8.268;2022-08-21T05:53:24;27.30;80.10
39237;DHT22;36851;49.996;8.268;2022-08-21T05:55:51;27.30;80.00
39237;DHT22;36851;49.996;8.268;2022-08-21T05:58:19;27.30;80.10
39237;DHT22;36851;49.996;8.268;2022-08-21T06:00:47;27.30;80.00
39237;DHT22;36851;49.996;8.268;2022-08-21T06:03:16;27.30;80.00
39237;DHT22;36851;49.996;8.268;2022-08-21T06:05:44;27.30;80.00
39237;DHT22;36851;49.996;8.268;2022-08-21T06:08:13;27.30;80.00
39237;DHT22;36851;49.996;8.268;2022-08-21T06:10:40;27.30;80.00
39237;DHT22;36851;49.996;8.268;2022-08-21T06:13:07;27.30;80.00
39237;DHT22;36851;49.996;8.268;2022-08-21T06:15:34;27.30;80.00
39237;DHT22;36851;49.996;8.268;2022-08-21T06:18:02;27.30;80.10
39237;DHT22;36851;49.996;8.268;2022-08-21T06:20:29;27.30;80.00
39237;DHT22;36851;49.996;8.268;2022-08-21T06:22:56;27.30;80.10
39237;DHT22;36851;49.996;8.268;2022-08-21T06:25:24;27.30;80.10
39237;DHT22;36851;49.996;8.268;2022-08-21T06:27:51;27.30;80.10
39237;DHT22;36851;49.996;8.268;2022-08-21T06:30:18;27.30;80.10
39237;DHT22;36851;49.996;8.268;2022-08-21T06:32:45;27.30;80.10
39237;DHT22;36851;49.996;8.268;2022-08-21T06:35:12;27.20;80.00
39237;DHT22;36851;49.996;8.268;2022-08-21T06:37:39;27.20;80.10
39237;DHT22;36851;49.996;8.268;2022-08-21T06:40:07;27.20;80.10
39237;DHT22;36851;49.996;8.268;2022-08-21T06:42:39;27.20;80.10
39237;DHT22;36851;49.996;8.268;2022-08-21T06:45:09;27.20;80.00
39237;DHT22;36851;49.996;8.268;2022-08-21T06:47:36;27.20;80.10
39237;DHT22;36851;49.996;8.268;2022-08-21T06:50:04;27.20;80.00
39237;DHT22;36851;49.996;8.268;2022-08-21T06:52:31;27.20;80.10
39237;DHT22;36851;49.996;8.268;2022-08-21T06:54:58;27.30;80.10
39237;DHT22;36851;49.996;8.268;2022-08-21T06:57:25;27.20;80.10
39237;DHT22;36851;49.996;8.268;2022-08-21T06:59:53;27.20;80.10
39237;DHT22;36851;49.996;8.268;2022-08-21T07:02:20;27.20;80.10
39237;DHT22;36851;49.996;8.268;2022-08-21T07:04:47;27.30;80.20
39237;DHT22;36851;49.996;8.268;2022-08-21T07:07:14;27.30;80.20
39237;DHT22;36851;49.996;8.268;2022-08-21T07:09:41;27.30;80.20
39237;DHT22;36851;49.996;8.268;2022-08-21T07:12:08;27.30;80.20
39237;DHT22;36851;49.996;8.268;2022-08-21T07:14:36;27.30;80.20
39237;DHT22;36851;49.996;8.268;2022-08-21T07:17:03;27.30;80.20
39237;DHT22;36851;49.996;8.268;2022-08-21T07:19:30;27.30;80.20
39237;DHT22;36851;49.996;8.268;2022-08-21T07:22:00;27.40;80.30
39237;DHT22;36851;49.996;8.268;2022-08-21T07:24:27;27.30;80.30
39237;DHT22;36851;49.996;8.268;2022-08-21T07:26:54;27.30;80.30
39237;DHT22;36851;49.996;8.268;2022-08-21T07:29:22;27.30;80.30
39237;DHT22;36851;49.996;8.268;2022-08-21T07:31:49;27.30;80.30
39237;DHT22;36851;49.996;8.268;2022-08-21T07:34:16;27.30;80.30
39237;DHT22;36851;49.996;8.268;2022-08-21T07:36:43;27.40;80.40
39237;DHT22;36851;49.996;8.268;2022-08-21T07:39:11;27.40;80.40
39237;DHT22;36851;49.996;8.268;2022-08-21T07:41:38;27.40;80.40
39237;DHT22;36851;49.996;8.268;2022-08-21T07:44:05;27.40;80.50
39237;DHT22;36851;49.996;8.268;2022-08-21T07:46:32;27.40;80.50
39237;DHT22;36851;49.996;8.268;2022-08-21T07:48:59;27.40;80.50
39237;DHT22;36851;49.996;8.268;2022-08-21T07:51:27;27.40;80.50
39237;DHT22;36851;49.996;8.268;2022-08-21T07:53:55;27.40;80.50
39237;DHT22;36851;49.996;8.268;2022-08-21T07:56:22;27.40;80.50
39237;DHT22;36851;49.996;8.268;2022-08-21T07:58:50;27.40;80.50
39237;DHT22;36851;49.996;8.268;2022-08-21T08:01:17;27.40;80.50
39237;DHT22;36851;49.996;8.268;2022-08-21T08:03:44;27.40;80.50
39237;DHT22;36851;49.996;8.268;2022-08-21T08:06:12;27.50;80.60
39237;DHT22;36851;49.996;8.268;2022-08-21T08:08:39;27.40;80.50
39237;DHT22;36851;49.996;8.268;2022-08-21T08:11:07;27.50;80.60
39237;DHT22;36851;49.996;8.268;2022-08-21T08:13:38;27.50;80.60
39237;DHT22;36851;49.996;8.268;2022-08-21T08:16:05;27.50;80.60
39237;DHT22;36851;49.996;8.268;2022-08-21T08:18:32;27.40;80.70
39237;DHT22;36851;49.996;8.268;2022-08-21T08:20:59;27.40;80.60
39237;DHT22;36851;49.996;8.268;2022-08-21T08:23:26;27.50;80.70
39237;DHT22;36851;49.996;8.268;2022-08-21T08:25:54;27.50;80.70
39237;DHT22;36851;49.996;8.268;2022-08-21T08:28:21;27.50;80.70
39237;DHT22;36851;49.996;8.268;2022-08-21T08:30:48;27.50;80.70
39237;DHT22;36851;49.996;8.268;2022-08-21T08:33:16;27.50;80.70
39237;DHT22;36851;49.996;8.268;2022-08-21T08:35:44;27.50;80.70
39237;DHT22;36851;49.996;8.268;2022-08-21T08:38:12;27.50;80.70
39237;DHT22;36851;49.996;8.268;2022-08-21T08:40:40;27.50;80.70
39237;DHT22;36851;49.996;8.268;2022-08-21T08:43:11;27.50;80.70
39237;DHT22;36851;49.996;8.268;2022-08-21T08:45:42;27.50;80.70
39237;DHT22;36851;49.996;8.268;2022-08-21T08:48:12;27.50;81.30
39237;DHT22;36851;49.996;8.268;2022-08-21T08:50:45;27.50;80.70
39237;DHT22;36851;49.996;8.268;2022-08-21T08:53:24;27.50;80.70
39237;DHT22;36851;49.996;8.268;2022-08-21T08:55:52;27.50;80.80
39237;DHT22;36851;49.996;8.268;2022-08-21T08:58:22;27.50;80.70
39237;DHT22;36851;49.996;8.268;2022-08-21T09:00:51;27.50;80.80
39237;DHT22;36851;49.996;8.268;2022-08-21T09:03:19;27.50;80.80
39237;DHT22;36851;49.996;8.268;2022-08-21T09:06:37;27.50;80.80
39237;DHT22;36851;49.996;8.268;2022-08-21T09:08:42;27.50;80.80
39237;DHT22;36851;49.996;8.268;2022-08-21T09:11:20;27.50;80.70
39237;DHT22;36851;49.996;8.268;2022-08-21T09:14:01;27.50;80.80
39237;DHT22;36851;49.996;8.268;2022-08-21T09:16:36;27.50;80.80
39237;DHT22;36851;49.996;8.268;2022-08-21T09:29:33;27.50;80.80
39237;DHT22;36851;49.996;8.268;2022-08-21T09:32:02;27.50;80.80
39237;DHT22;36851;49.996;8.268;2022-08-21T09:34:30;27.50;80.80
39237;DHT22;36851;49.996;8.268;2022-08-21T09:36:58;27.50;80.80
39237;DHT22;36851;49.996;8.268;2022-08-21T09:39:28;27.50;80.70
39237;DHT22;36851;49.996;8.268;2022-08-21T09:41:59;27.60;80.80
39237;DHT22;36851;49.996;8.268;2022-08-21T09:44:28;27.50;80.70
39237;DHT22;36851;49.996;8.268;2022-08-21T09:46:56;27.60;80.80
39237;DHT22;36851;49.996;8.268;2022-08-21T09:49:27;27.50;80.70
39237;DHT22;36851;49.996;8.268;2022-08-21T09:51:54;27.60;80.80
39237;DHT22;36851;49.996;8.268;2022-08-21T09:54:24;27.60;80.80
39237;DHT22;36851;49.996;8.268;2022-08-21T09:57:00;27.60;80.80
39237;DHT22;36851;49.996;8.268;2022-08-21T09:59:46;27.60;80.80
39237;DHT22;36851;49.996;8.268;2022-08-21T10:04:54;27.60;80.80
39237;DHT22;36851;49.996;8.268;2022-08-21T10:07:23;27.60;80.80
39237;DHT22;36851;49.996;8.268;2022-08-21T10:10:02;27.60;80.80
39237;DHT22;36851;49.996;8.268;2022-08-21T10:12:41;27.60;80.80
39237;DHT22;36851;49.996;8.268;2022-08-21T10:17:59;27.60;80.80
39237;DHT22;36851;49.996;8.268;2022-08-21T10:20:37;27.60;80.80
39237;DHT22;36851;49.996;8.268;2022-08-21T10:28:50;27.60;80.80
39237;DHT22;36851;49.996;8.268;2022-08-21T10:31:38;27.60;80.80
39237;DHT22;36851;49.996;8.268;2022-08-21T10:34:15;27.60;80.80
39237;DHT22;36851;49.996;8.268;2022-08-21T10:39:31;27.60;80.90
39237;DHT22;36851;49.996;8.268;2022-08-21T10:42:17;27.60;80.80
39237;DHT22;36851;49.996;8.268;2022-08-21T10:45:41;27.60;80.90
39237;DHT22;36851;49.996;8.268;2022-08-21T10:47:48;27.60;80.80
39237;DHT22;36851;49.996;8.268;2022-08-21T10:50:24;27.60;80.80
39237;DHT22;36851;49.996;8.268;2022-08-21T10:55:26;27.60;80.80
39237;DHT22;36851;49.996;8.268;2022-08-21T10:57:57;27.60;80.80
39237;DHT22;36851;49.996;8.268;2022-08-21T11:00:35;27.60;80.80
39237;DHT22;36851;49.996;8.268;2022-08-21T11:05:41;27.60;80.80
39237;DHT22;36851;49.996;8.268;2022-08-21T11:08:19;27.60;80.80
39237;DHT22;36851;49.996;8.268;2022-08-21T11:10:53;27.60;80.80
39237;DHT22;36851;49.996;8.268;2022-08-21T11:16:02;27.60;80.90
39237;DHT22;36851;49.996;8.268;2022-08-21T11:18:33;27.60;80.90
39237;DHT22;36851;49.996;8.268;2022-08-21T11:21:25;27.60;80.80
39237;DHT22;36851;49.996;8.268;2022-08-21T11:23:59;27.60;81.50
39237;DHT22;36851;49.996;8.268;2022-08-21T11:29:02;27.60;80.90
39237;DHT22;36851;49.996;8.268;2022-08-21T11:31:35;27.60;81.50
39237;DHT22;36851;49.996;8.268;2022-08-21T11:34:25;27.60;80.80
39237;DHT22;36851;49.996;8.268;2022-08-21T11:37:23;27.60;80.80
39237;DHT22;36851;49.996;8.268;2022-08-21T11:42:38;27.60;80.80
39237;DHT22;36851;49.996;8.268;2022-08-21T11:50:28;27.60;80.80
39237;DHT22;36851;49.996;8.268;2022-08-21T11:53:09;27.60;80.80
39237;DHT22;36851;49.996;8.268;2022-08-21T11:58:25;27.60;80.80
39237;DHT22;36851;49.996;8.268;2022-08-21T12:00:57;27.60;80.80
39237;DHT22;36851;49.996;8.268;2022-08-21T12:03:31;27.60;81.30
39237;DHT22;36851;49.996;8.268;2022-08-21T12:06:01;27.60;81.30
39237;DHT22;36851;49.996;8.268;2022-08-21T12:08:33;27.60;80.70
39237;DHT22;36851;49.996;8.268;2022-08-21T12:13:32;27.60;80.70
39237;DHT22;36851;49.996;8.268;2022-08-21T12:18:35;27.60;80.60
39237;DHT22;36851;49.996;8.268;2022-08-21T12:21:19;27.70;80.70
39237;DHT22;36851;49.996;8.268;2022-08-21T12:23:48;27.60;80.60
39237;DHT22;36851;49.996;8.268;2022-08-21T12:26:24;27.60;80.60
39237;DHT22;36851;49.996;8.268;2022-08-21T12:29:02;27.60;80.60
39237;DHT22;36851;49.996;8.268;2022-08-21T12:31:30;27.60;80.60
39237;DHT22;36851;49.996;8.268;2022-08-21T12:33:58;27.70;80.60
39237;DHT22;36851;49.996;8.268;2022-08-21T12:36:35;27.70;81.20
39237;DHT22;36851;49.996;8.268;2022-08-21T12:39:05;27.60;80.60
39237;DHT22;36851;49.996;8.268;2022-08-21T12:41:43;27.60;80.60
39237;DHT22;36851;49.996;8.268;2022-08-21T12:44:13;27.60;80.60
39237;DHT22;36851;49.996;8.268;2022-08-21T12:46:58;27.70;80.70
39237;DHT22;36851;49.996;8.268;2022-08-21T12:49:35;27.60;80.60
39237;DHT22;36851;49.996;8.268;2022-08-21T12:52:23;27.70;80.60
39237;DHT22;36851;49.996;8.268;2022-08-21T12:54:50;27.70;80.50
39237;DHT22;36851;49.996;8.268;2022-08-21T12:57:19;27.70;80.50
39237;DHT22;36851;49.996;8.268;2022-08-21T12:59:51;27.70;80.50
39237;DHT22;36851;49.996;8.268;2022-08-21T13:02:19;27.80;80.50
39237;DHT22;36851;49.996;8.268;2022-08-21T13:04:48;27.70;80.40
39237;DHT22;36851;49.996;8.268;2022-08-21T13:07:22;27.80;80.40
39237;DHT22;36851;49.996;8.268;2022-08-21T13:09:57;27.80;80.30
39237;DHT22;36851;49.996;8.268;2022-08-21T13:12:25;27.80;80.30
39237;DHT22;36851;49.996;8.268;2022-08-21T13:14:58;27.80;80.30
39237;DHT22;36851;49.996;8.268;2022-08-21T13:17:30;27.90;80.30
39237;DHT22;36851;49.996;8.268;2022-08-21T13:19:59;27.90;80.30
39237;DHT22;36851;49.996;8.268;2022-08-21T13:22:27;27.90;80.20
39237;DHT22;36851;49.996;8.268;2022-08-21T13:25:01;27.90;80.20
39237;DHT22;36851;49.996;8.268;2022-08-21T13:27:33;28.00;80.30
39237;DHT22;36851;49.996;8.268;2022-08-21T13:30:05;28.00;80.20
39237;DHT22;36851;49.996;8.268;2022-08-21T13:32:34;28.00;80.10
39237;DHT22;36851;49.996;8.268;2022-08-21T13:35:10;28.00;80.10
39237;DHT22;36851;49.996;8.268;2022-08-21T13:37:39;28.00;80.10
39237;DHT22;36851;49.996;8.268;2022-08-21T13:40:09;28.00;80.10
39237;DHT22;36851;49.996;8.268;2022-08-21T13:42:38;28.10;80.10
39237;DHT22;36851;49.996;8.268;2022-08-21T13:45:11;28.00;80.00
39237;DHT22;36851;49.996;8.268;2022-08-21T13:47:39;28.00;80.10
39237;DHT22;36851;49.996;8.268;2022-08-21T13:50:07;28.00;80.10
39237;DHT22;36851;49.996;8.268;2022-08-21T13:52:34;28.10;80.10
39237;DHT22;36851;49.996;8.268;2022-08-21T13:55:12;28.10;80.00
39237;DHT22;36851;49.996;8.268;2022-08-21T13:57:42;28.10;79.90
39237;DHT22;36851;49.996;8.268;2022-08-21T14:02:41;28.20;79.90
39237;DHT22;36851;49.996;8.268;2022-08-21T14:05:14;28.20;79.80
39237;DHT22;36851;49.996;8.268;2022-08-21T14:07:42;28.20;79.90
39237;DHT22;36851;49.996;8.268;2022-08-21T14:10:15;28.30;79.80
39237;DHT22;36851;49.996;8.268;2022-08-21T14:12:46;28.30;79.80
39237;DHT22;36851;49.996;8.268;2022-08-21T14:15:14;28.30;79.60
39237;DHT22;36851;49.996;8.268;2022-08-21T14:17:42;28.40;79.60
39237;DHT22;36851;49.996;8.268;2022-08-21T14:20:11;28.40;79.50
39237;DHT22;36851;49.996;8.268;2022-08-21T14:22:41;28.50;79.40
39237;DHT22;36851;49.996;8.268;2022-08-21T14:25:11;28.50;79.40
39237;DHT22;36851;49.996;8.268;2022-08-21T14:27:42;28.50;79.30
39237;DHT22;36851;49.996;8.268;2022-08-21T14:30:12;28.60;79.20
39237;DHT22;36851;49.996;8.268;2022-08-21T14:32:40;28.60;79.20
39237;DHT22;36851;49.996;8.268;2022-08-21T14:35:12;28.70;79.10
39237;DHT22;36851;49.996;8.268;2022-08-21T14:37:42;28.70;79.10
39237;DHT22;36851;49.996;8.268;2022-08-21T14:40:10;28.70;78.90
39237;DHT22;36851;49.996;8.268;2022-08-21T14:42:40;28.80;78.90
39237;DHT22;36851;49.996;8.268;2022-08-21T14:45:13;28.90;78.90
39237;DHT22;36851;49.996;8.268;2022-08-21T14:47:42;28.90;78.70
39237;DHT22;36851;49.996;8.268;2022-08-21T14:50:10;29.00;78.70
39237;DHT22;36851;49.996;8.268;2022-08-21T14:52:37;29.00;78.60
39237;DHT22;36851;49.996;8.268;2022-08-21T14:55:06;29.10;78.50
39237;DHT22;36851;49.996;8.268;2022-08-21T14:57:34;29.10;78.50
39237;DHT22;36851;49.996;8.268;2022-08-21T15:00:03;29.10;78.40
39237;DHT22;36851;49.996;8.268;2022-08-21T15:02:31;29.20;78.40
39237;DHT22;36851;49.996;8.268;2022-08-21T15:04:58;29.20;78.40
39237;DHT22;36851;49.996;8.268;2022-08-21T15:07:26;29.20;78.40
39237;DHT22;36851;49.996;8.268;2022-08-21T15:09:53;29.20;78.30
39237;DHT22;36851;49.996;8.268;2022-08-21T15:12:20;29.20;78.30
39237;DHT22;36851;49.996;8.268;2022-08-21T15:14:47;29.20;78.30
39237;DHT22;36851;49.996;8.268;2022-08-21T15:17:14;29.20;78.30
39237;DHT22;36851;49.996;8.268;2022-08-21T15:19:42;29.10;78.30
39237;DHT22;36851;49.996;8.268;2022-08-21T15:22:09;29.00;78.40
39237;DHT22;36851;49.996;8.268;2022-08-21T15:24:53;29.00;78.60
39237;DHT22;36851;49.996;8.268;2022-08-21T15:27:20;28.90;78.70
39237;DHT22;36851;49.996;8.268;2022-08-21T15:29:48;28.80;78.80
39237;DHT22;36851;49.996;8.268;2022-08-21T15:32:23;28.80;79.60
39237;DHT22;36851;49.996;8.268;2022-08-21T15:34:51;28.70;79.00
39237;DHT22;36851;49.996;8.268;2022-08-21T15:37:18;28.70;79.20
39237;DHT22;36851;49.996;8.268;2022-08-21T15:39:46;28.60;79.70
39237;DHT22;36851;49.996;8.268;2022-08-21T15:42:20;28.60;79.20
39237;DHT22;36851;49.996;8.268;2022-08-21T15:44:47;28.60;79.30
39237;DHT22;36851;49.996;8.268;2022-08-21T15:47:16;28.60;79.40
39237;DHT22;36851;49.996;8.268;2022-08-21T15:49:44;28.50;79.40
39237;DHT22;36851;49.996;8.268;2022-08-21T15:52:16;28.50;79.40
39237;DHT22;36851;49.996;8.268;2022-08-21T15:54:43;28.50;79.50
39237;DHT22;36851;49.996;8.268;2022-08-21T15:57:12;28.40;79.50
39237;DHT22;36851;49.996;8.268;2022-08-21T15:59:41;28.40;79.50
39237;DHT22;36851;49.996;8.268;2022-08-21T16:02:10;28.40;79.50
39237;DHT22;36851;49.996;8.268;2022-08-21T16:04:39;28.40;79.50
39237;DHT22;36851;49.996;8.268;2022-08-21T16:07:06;28.50;79.60
39237;DHT22;36851;49.996;8.268;2022-08-21T16:09:36;28.40;79.50
39237;DHT22;36851;49.996;8.268;2022-08-21T16:12:04;28.40;79.50
39237;DHT22;36851;49.996;8.268;2022-08-21T16:14:32;28.40;79.50
39237;DHT22;36851;49.996;8.268;2022-08-21T16:17:01;28.40;79.50
39237;DHT22;36851;49.996;8.268;2022-08-21T16:19:28;28.40;79.60
39237;DHT22;36851;49.996;8.268;2022-08-21T16:21:55;28.30;79.50
39237;DHT22;36851;49.996;8.268;2022-08-21T16:24:22;28.40;79.60
39237;DHT22;36851;49.996;8.268;2022-08-21T16:26:50;28.30;79.60
39237;DHT22;36851;49.996;8.268;2022-08-21T16:29:25;28.30;79.60
39237;DHT22;36851;49.996;8.268;2022-08-21T16:31:55;28.30;79.70
39237;DHT22;36851;49.996;8.268;2022-08-21T16:34:22;28.30;79.70
39237;DHT22;36851;49.996;8.268;2022-08-21T16:36:49;28.30;79.70
39237;DHT22;36851;49.996;8.268;2022-08-21T16:39:16;28.20;79.60
39237;DHT22;36851;49.996;8.268;2022-08-21T16:41:44;28.30;79.70